sensor_id;sensor_type;location;lat;lon;timestamp;P1;durP1;ratioP1;P2;durP2;ratioP2
31734;SDS011;18313;48.518;9.124;2023-02-20T00:00:36;7.18;;;2.20;;
31734;SDS011;18313;48.518;9.124;2023-02-20T00:03:04;8.13;;;2.40;;
31734;SDS011;18313;48.518;9.124;2023-02-20T00:05:32;6.93;;;2.30;;
31734;SDS011;18313;48.518;9.124;2023-02-20T00:08:00;6.18;;;2.28;;
31734;SDS011;18313;48.518;9.124;2023-02-20T00:10:27;8.05;;;2.50;;
31734;SDS011;18313;48.518;9.124;2023-02-20T00:12:54;5.43;;;2.10;;
31734;SDS011;18313;48.518;9.124;2023-02-20T00:15:22;6.82;;;2.40;;
31734;SDS011;18313;48.518;9.124;2023-02-20T00:17:49;6.10;;;2.15;;
31734;SDS011;18313;48.518;9.124;2023-02-20T00:20:16;7.70;;;2.10;;
31734;SDS011;18313;48.518;9.124;2023-02-20T00:22:48;6.95;;;2.33;;
31734;SDS011;18313;48.518;9.124;2023-02-20T00:25:16;9.00;;;2.28;;
31734;SDS011;18313;48.518;9.124;2023-02-20T00:27:44;6.50;;;2.80;;
31734;SDS011;18313;48.518;9.124;2023-02-20T00:30:16;9.82;;;2.55;;
31734;SDS011;18313;48.518;9.124;2023-02-20T00:32:45;5.47;;;2.22;;
31734;SDS011;18313;48.518;9.124;2023-02-20T00:35:13;5.32;;;2.25;;
31734;SDS011;18313;48.518;9.124;2023-02-20T00:37:41;9.90;;;2.60;;
31734;SDS011;18313;48.518;9.124;2023-02-20T00:40:08;8.00;;;2.50;;
31734;SDS011;18313;48.518;9.124;2023-02-20T00:42:36;5.18;;;2.15;;
31734;SDS011;18313;48.518;9.124;2023-02-20T00:45:04;8.45;;;2.15;;
31734;SDS011;18313;48.518;9.124;2023-02-20T00:47:32;11.50;;;2.30;;
31734;SDS011;18313;48.518;9.124;2023-02-20T00:49:59;5.05;;;2.20;;
31734;SDS011;18313;48.518;9.124;2023-02-20T00:52:26;6.63;;;2.30;;
31734;SDS011;18313;48.518;9.124;2023-02-20T00:54:53;6.78;;;2.25;;
31734;SDS011;18313;48.518;9.124;2023-02-20T00:57:20;7.20;;;2.25;;
31734;SDS011;18313;48.518;9.124;2023-02-20T00:59:47;6.18;;;2.33;;
31734;SDS011;18313;48.518;9.124;2023-02-20T01:02:14;4.88;;;2.10;;
31734;SDS011;18313;48.518;9.124;2023-02-20T01:04:41;3.33;;;1.88;;
31734;SDS011;18313;48.518;9.124;2023-02-20T01:07:08;6.63;;;1.95;;
31734;SDS011;18313;48.518;9.124;2023-02-20T01:09:35;5.75;;;2.30;;
31734;SDS011;18313;48.518;9.124;2023-02-20T01:12:03;5.13;;;2.08;;
31734;SDS011;18313;48.518;9.124;2023-02-20T01:14:30;7.95;;;2.42;;
31734;SDS011;18313;48.518;9.124;2023-02-20T01:16:57;7.68;;;2.38;;
31734;SDS011;18313;48.518;9.124;2023-02-20T01:19:24;8.73;;;2.60;;
31734;SDS011;18313;48.518;9.124;2023-02-20T01:21:51;6.03;;;2.20;;
31734;SDS011;18313;48.518;9.124;2023-02-20T01:24:18;6.60;;;2.03;;
31734;SDS011;18313;48.518;9.124;2023-02-20T01:26:46;6.43;;;2.10;;
31734;SDS011;18313;48.518;9.124;2023-02-20T01:29:15;7.68;;;1.98;;
31734;SDS011;18313;48.518;9.124;2023-02-20T01:31:46;8.85;;;2.80;;
31734;SDS011;18313;48.518;9.124;2023-02-20T01:34:14;9.25;;;2.08;;
31734;SDS011;18313;48.518;9.124;2023-02-20T01:36:46;7.32;;;2.35;;
31734;SDS011;18313;48.518;9.124;2023-02-20T01:39:22;5.63;;;2.20;;
31734;SDS011;18313;48.518;9.124;2023-02-20T01:41:52;6.03;;;2.10;;
31734;SDS011;18313;48.518;9.124;2023-02-20T01:44:24;6.32;;;2.00;;
31734;SDS011;18313;48.518;9.124;2023-02-20T01:46:54;6.13;;;2.05;;
31734;SDS011;18313;48.518;9.124;2023-02-20T01:49:27;5.50;;;2.17;;
31734;SDS011;18313;48.518;9.124;2023-02-20T01:52:08;7.53;;;2.40;;
31734;SDS011;18313;48.518;9.124;2023-02-20T01:54:41;10.32;;;2.30;;
31734;SDS011;18313;48.518;9.124;2023-02-20T01:57:13;5.53;;;2.05;;
31734;SDS011;18313;48.518;9.124;2023-02-20T01:59:44;7.97;;;2.58;;
31734;SDS011;18313;48.518;9.124;2023-02-20T02:02:12;5.70;;;2.50;;
31734;SDS011;18313;48.518;9.124;2023-02-20T02:04:41;10.05;;;2.67;;
31734;SDS011;18313;48.518;9.124;2023-02-20T02:07:10;6.03;;;2.20;;
31734;SDS011;18313;48.518;9.124;2023-02-20T02:09:40;8.95;;;2.28;;
31734;SDS011;18313;48.518;9.124;2023-02-20T02:12:14;9.15;;;2.30;;
31734;SDS011;18313;48.518;9.124;2023-02-20T02:14:42;7.93;;;2.20;;
31734;SDS011;18313;48.518;9.124;2023-02-20T02:20:01;7.40;;;2.65;;
31734;SDS011;18313;48.518;9.124;2023-02-20T02:22:57;10.98;;;3.08;;
31734;SDS011;18313;48.518;9.124;2023-02-20T02:25:32;8.88;;;2.50;;
31734;SDS011;18313;48.518;9.124;2023-02-20T02:31:35;6.45;;;2.30;;
31734;SDS011;18313;48.518;9.124;2023-02-20T02:34:12;8.43;;;2.50;;
31734;SDS011;18313;48.518;9.124;2023-02-20T02:39:41;8.02;;;2.65;;
31734;SDS011;18313;48.518;9.124;2023-02-20T02:42:20;6.05;;;2.53;;
31734;SDS011;18313;48.518;9.124;2023-02-20T02:45:19;6.45;;;2.33;;
31734;SDS011;18313;48.518;9.124;2023-02-20T02:47:59;6.60;;;2.50;;
31734;SDS011;18313;48.518;9.124;2023-02-20T02:50:50;5.20;;;2.50;;
31734;SDS011;18313;48.518;9.124;2023-02-20T02:53:23;8.23;;;2.85;;
31734;SDS011;18313;48.518;9.124;2023-02-20T02:55:50;9.70;;;2.60;;
31734;SDS011;18313;48.518;9.124;2023-02-20T02:58:17;6.82;;;2.53;;
31734;SDS011;18313;48.518;9.124;2023-02-20T03:00:46;9.68;;;3.20;;
31734;SDS011;18313;48.518;9.124;2023-02-20T03:03:23;6.95;;;2.65;;
31734;SDS011;18313;48.518;9.124;2023-02-20T03:05:55;8.30;;;2.53;;
31734;SDS011;18313;48.518;9.124;2023-02-20T03:08:49;7.80;;;3.17;;
31734;SDS011;18313;48.518;9.124;2023-02-20T03:11:24;9.57;;;3.10;;
31734;SDS011;18313;48.518;9.124;2023-02-20T03:14:07;7.25;;;3.05;;
31734;SDS011;18313;48.518;9.124;2023-02-20T03:17:19;7.10;;;2.80;;
31734;SDS011;18313;48.518;9.124;2023-02-20T03:19:56;7.13;;;2.38;;
31734;SDS011;18313;48.518;9.124;2023-02-20T03:22:28;7.82;;;2.42;;
31734;SDS011;18313;48.518;9.124;2023-02-20T03:25:03;6.68;;;2.53;;
31734;SDS011;18313;48.518;9.124;2023-02-20T03:27:36;10.32;;;3.03;;
31734;SDS011;18313;48.518;9.124;2023-02-20T03:30:20;8.45;;;2.60;;
31734;SDS011;18313;48.518;9.124;2023-02-20T03:33:19;5.65;;;2.50;;
31734;SDS011;18313;48.518;9.124;2023-02-20T03:36:11;7.82;;;3.80;;
31734;SDS011;18313;48.518;9.124;2023-02-20T03:39:03;9.63;;;3.28;;
31734;SDS011;18313;48.518;9.124;2023-02-20T03:41:52;9.82;;;3.10;;
31734;SDS011;18313;48.518;9.124;2023-02-20T03:44:39;7.75;;;2.65;;
31734;SDS011;18313;48.518;9.124;2023-02-20T03:47:08;7.40;;;3.05;;
31734;SDS011;18313;48.518;9.124;2023-02-20T03:49:40;9.15;;;3.10;;
31734;SDS011;18313;48.518;9.124;2023-02-20T03:52:10;6.95;;;2.80;;
31734;SDS011;18313;48.518;9.124;2023-02-20T03:54:37;8.80;;;3.20;;
31734;SDS011;18313;48.518;9.124;2023-02-20T03:57:08;6.47;;;2.60;;
31734;SDS011;18313;48.518;9.124;2023-02-20T03:59:46;6.45;;;2.70;;
31734;SDS011;18313;48.518;9.124;2023-02-20T04:02:27;7.15;;;3.15;;
31734;SDS011;18313;48.518;9.124;2023-02-20T04:05:03;8.20;;;2.67;;
31734;SDS011;18313;48.518;9.124;2023-02-20T04:07:35;9.38;;;3.30;;
31734;SDS011;18313;48.518;9.124;2023-02-20T04:10:14;15.18;;;3.50;;
31734;SDS011;18313;48.518;9.124;2023-02-20T04:12:44;7.50;;;2.92;;
31734;SDS011;18313;48.518;9.124;2023-02-20T04:15:16;7.13;;;3.00;;
31734;SDS011;18313;48.518;9.124;2023-02-20T04:17:46;7.38;;;3.15;;
31734;SDS011;18313;48.518;9.124;2023-02-20T04:20:21;6.93;;;2.67;;
31734;SDS011;18313;48.518;9.124;2023-02-20T04:22:49;6.80;;;2.83;;
31734;SDS011;18313;48.518;9.124;2023-02-20T04:25:24;8.52;;;3.00;;
31734;SDS011;18313;48.518;9.124;2023-02-20T04:28:07;10.52;;;3.40;;
31734;SDS011;18313;48.518;9.124;2023-02-20T04:30:35;8.13;;;2.90;;
31734;SDS011;18313;48.518;9.124;2023-02-20T04:33:02;7.40;;;2.90;;
31734;SDS011;18313;48.518;9.124;2023-02-20T04:35:29;6.43;;;2.75;;
31734;SDS011;18313;48.518;9.124;2023-02-20T04:37:56;8.63;;;3.13;;
31734;SDS011;18313;48.518;9.124;2023-02-20T04:40:24;6.60;;;2.92;;
31734;SDS011;18313;48.518;9.124;2023-02-20T04:42:51;8.57;;;3.00;;
31734;SDS011;18313;48.518;9.124;2023-02-20T04:45:18;15.00;;;3.83;;
31734;SDS011;18313;48.518;9.124;2023-02-20T04:47:45;12.05;;;3.63;;
31734;SDS011;18313;48.518;9.124;2023-02-20T04:50:16;8.27;;;3.50;;
31734;SDS011;18313;48.518;9.124;2023-02-20T04:52:47;7.43;;;3.17;;
31734;SDS011;18313;48.518;9.124;2023-02-20T04:55:14;7.47;;;3.00;;
31734;SDS011;18313;48.518;9.124;2023-02-20T04:57:41;10.05;;;3.20;;
31734;SDS011;18313;48.518;9.124;2023-02-20T05:00:09;7.78;;;3.05;;
31734;SDS011;18313;48.518;9.124;2023-02-20T05:02:38;6.50;;;3.15;;
31734;SDS011;18313;48.518;9.124;2023-02-20T05:05:07;8.73;;;3.17;;
31734;SDS011;18313;48.518;9.124;2023-02-20T05:07:54;8.55;;;3.17;;
31734;SDS011;18313;48.518;9.124;2023-02-20T05:10:24;11.30;;;3.10;;
31734;SDS011;18313;48.518;9.124;2023-02-20T05:12:52;6.55;;;3.17;;
31734;SDS011;18313;48.518;9.124;2023-02-20T05:15:19;8.85;;;3.20;;
31734;SDS011;18313;48.518;9.124;2023-02-20T05:17:47;6.78;;;3.33;;
31734;SDS011;18313;48.518;9.124;2023-02-20T05:20:14;11.93;;;3.30;;
31734;SDS011;18313;48.518;9.124;2023-02-20T05:22:44;8.60;;;2.95;;
31734;SDS011;18313;48.518;9.124;2023-02-20T05:25:12;8.98;;;3.33;;
31734;SDS011;18313;48.518;9.124;2023-02-20T05:27:39;6.15;;;3.03;;
31734;SDS011;18313;48.518;9.124;2023-02-20T05:30:08;8.05;;;2.90;;
31734;SDS011;18313;48.518;9.124;2023-02-20T05:32:36;9.05;;;3.85;;
31734;SDS011;18313;48.518;9.124;2023-02-20T05:35:04;6.25;;;3.10;;
31734;SDS011;18313;48.518;9.124;2023-02-20T05:37:31;9.98;;;3.10;;
31734;SDS011;18313;48.518;9.124;2023-02-20T05:39:59;8.88;;;3.35;;
31734;SDS011;18313;48.518;9.124;2023-02-20T05:42:26;7.07;;;2.83;;
31734;SDS011;18313;48.518;9.124;2023-02-20T05:44:53;9.85;;;3.25;;
31734;SDS011;18313;48.518;9.124;2023-02-20T05:47:20;7.72;;;3.10;;
31734;SDS011;18313;48.518;9.124;2023-02-20T05:49:47;9.35;;;3.33;;
31734;SDS011;18313;48.518;9.124;2023-02-20T05:52:15;11.50;;;4.07;;
31734;SDS011;18313;48.518;9.124;2023-02-20T05:54:44;7.25;;;3.13;;
31734;SDS011;18313;48.518;9.124;2023-02-20T05:57:11;10.38;;;3.35;;
31734;SDS011;18313;48.518;9.124;2023-02-20T05:59:39;8.35;;;3.17;;
31734;SDS011;18313;48.518;9.124;2023-02-20T06:02:06;6.03;;;3.20;;
31734;SDS011;18313;48.518;9.124;2023-02-20T06:04:33;7.80;;;3.40;;
31734;SDS011;18313;48.518;9.124;2023-02-20T06:07:00;7.22;;;3.15;;
31734;SDS011;18313;48.518;9.124;2023-02-20T06:09:27;6.97;;;3.25;;
31734;SDS011;18313;48.518;9.124;2023-02-20T06:11:55;6.63;;;2.85;;
31734;SDS011;18313;48.518;9.124;2023-02-20T06:14:24;8.52;;;3.10;;
31734;SDS011;18313;48.518;9.124;2023-02-20T06:16:52;8.57;;;2.78;;
31734;SDS011;18313;48.518;9.124;2023-02-20T06:19:20;8.52;;;2.90;;
31734;SDS011;18313;48.518;9.124;2023-02-20T06:21:52;9.23;;;3.25;;
31734;SDS011;18313;48.518;9.124;2023-02-20T06:24:20;6.80;;;2.88;;
31734;SDS011;18313;48.518;9.124;2023-02-20T06:26:48;7.75;;;2.97;;
31734;SDS011;18313;48.518;9.124;2023-02-20T06:29:15;9.77;;;3.38;;
31734;SDS011;18313;48.518;9.124;2023-02-20T06:31:42;9.10;;;3.00;;
31734;SDS011;18313;48.518;9.124;2023-02-20T06:34:10;5.15;;;2.78;;
31734;SDS011;18313;48.518;9.124;2023-02-20T06:36:38;6.85;;;2.78;;
31734;SDS011;18313;48.518;9.124;2023-02-20T06:39:08;6.15;;;2.65;;
31734;SDS011;18313;48.518;9.124;2023-02-20T06:41:37;9.45;;;2.85;;
31734;SDS011;18313;48.518;9.124;2023-02-20T06:44:04;9.23;;;2.90;;
31734;SDS011;18313;48.518;9.124;2023-02-20T06:46:31;7.20;;;3.15;;
31734;SDS011;18313;48.518;9.124;2023-02-20T06:48:59;8.77;;;2.95;;
31734;SDS011;18313;48.518;9.124;2023-02-20T06:51:27;7.40;;;3.35;;
31734;SDS011;18313;48.518;9.124;2023-02-20T06:53:57;8.00;;;3.25;;
31734;SDS011;18313;48.518;9.124;2023-02-20T06:56:26;6.93;;;2.90;;
31734;SDS011;18313;48.518;9.124;2023-02-20T06:58:56;7.55;;;2.97;;
31734;SDS011;18313;48.518;9.124;2023-02-20T07:01:24;11.30;;;3.42;;
31734;SDS011;18313;48.518;9.124;2023-02-20T07:03:54;8.02;;;3.70;;
31734;SDS011;18313;48.518;9.124;2023-02-20T07:06:23;7.18;;;3.10;;
31734;SDS011;18313;48.518;9.124;2023-02-20T07:08:51;6.15;;;3.22;;
31734;SDS011;18313;48.518;9.124;2023-02-20T07:11:19;6.88;;;3.08;;
31734;SDS011;18313;48.518;9.124;2023-02-20T07:13:48;7.35;;;3.10;;
31734;SDS011;18313;48.518;9.124;2023-02-20T07:16:16;8.90;;;2.97;;
31734;SDS011;18313;48.518;9.124;2023-02-20T07:18:44;9.57;;;3.10;;
31734;SDS011;18313;48.518;9.124;2023-02-20T07:21:11;9.45;;;3.20;;
31734;SDS011;18313;48.518;9.124;2023-02-20T07:23:37;6.75;;;3.55;;
31734;SDS011;18313;48.518;9.124;2023-02-20T07:26:04;8.25;;;3.42;;
31734;SDS011;18313;48.518;9.124;2023-02-20T07:28:35;7.97;;;3.60;;
31734;SDS011;18313;48.518;9.124;2023-02-20T07:31:02;6.25;;;2.97;;
31734;SDS011;18313;48.518;9.124;2023-02-20T07:33:30;8.15;;;3.10;;
31734;SDS011;18313;48.518;9.124;2023-02-20T07:35:57;6.38;;;3.20;;
31734;SDS011;18313;48.518;9.124;2023-02-20T07:38:24;9.15;;;3.15;;
31734;SDS011;18313;48.518;9.124;2023-02-20T07:40:51;5.07;;;2.88;;
31734;SDS011;18313;48.518;9.124;2023-02-20T07:43:19;8.40;;;3.10;;
31734;SDS011;18313;48.518;9.124;2023-02-20T07:45:47;8.85;;;3.58;;
31734;SDS011;18313;48.518;9.124;2023-02-20T07:48:14;8.70;;;3.00;;
31734;SDS011;18313;48.518;9.124;2023-02-20T07:50:41;9.40;;;3.53;;
31734;SDS011;18313;48.518;9.124;2023-02-20T07:53:08;8.38;;;3.20;;
31734;SDS011;18313;48.518;9.124;2023-02-20T07:55:39;10.80;;;3.38;;
31734;SDS011;18313;48.518;9.124;2023-02-20T07:58:06;7.28;;;3.22;;
31734;SDS011;18313;48.518;9.124;2023-02-20T08:00:33;7.43;;;3.03;;
31734;SDS011;18313;48.518;9.124;2023-02-20T08:03:00;7.60;;;2.75;;
31734;SDS011;18313;48.518;9.124;2023-02-20T08:05:27;8.68;;;2.92;;
31734;SDS011;18313;48.518;9.124;2023-02-20T08:08:12;5.68;;;3.00;;
31734;SDS011;18313;48.518;9.124;2023-02-20T08:10:39;7.35;;;2.80;;
31734;SDS011;18313;48.518;9.124;2023-02-20T08:13:07;7.90;;;2.65;;
31734;SDS011;18313;48.518;9.124;2023-02-20T08:15:34;8.15;;;2.90;;
31734;SDS011;18313;48.518;9.124;2023-02-20T08:18:01;8.77;;;2.88;;
31734;SDS011;18313;48.518;9.124;2023-02-20T08:20:31;7.63;;;2.75;;
31734;SDS011;18313;48.518;9.124;2023-02-20T08:22:58;7.47;;;3.05;;
31734;SDS011;18313;48.518;9.124;2023-02-20T08:25:26;7.20;;;2.90;;
31734;SDS011;18313;48.518;9.124;2023-02-20T08:27:53;9.95;;;3.20;;
31734;SDS011;18313;48.518;9.124;2023-02-20T08:30:24;8.65;;;3.15;;
31734;SDS011;18313;48.518;9.124;2023-02-20T08:32:53;6.93;;;2.70;;
31734;SDS011;18313;48.518;9.124;2023-02-20T08:35:21;10.32;;;4.13;;
31734;SDS011;18313;48.518;9.124;2023-02-20T08:37:50;8.40;;;3.38;;
31734;SDS011;18313;48.518;9.124;2023-02-20T08:40:17;9.65;;;3.40;;
31734;SDS011;18313;48.518;9.124;2023-02-20T08:42:48;7.50;;;3.22;;
31734;SDS011;18313;48.518;9.124;2023-02-20T08:45:16;8.80;;;3.03;;
31734;SDS011;18313;48.518;9.124;2023-02-20T08:47:43;9.35;;;3.08;;
31734;SDS011;18313;48.518;9.124;2023-02-20T08:50:10;5.70;;;2.40;;
31734;SDS011;18313;48.518;9.124;2023-02-20T08:52:37;9.65;;;2.78;;
31734;SDS011;18313;48.518;9.124;2023-02-20T08:55:04;7.55;;;2.00;;
31734;SDS011;18313;48.518;9.124;2023-02-20T08:57:32;5.95;;;2.25;;
31734;SDS011;18313;48.518;9.124;2023-02-20T08:59:59;6.00;;;1.80;;
31734;SDS011;18313;48.518;9.124;2023-02-20T09:02:26;10.00;;;2.10;;
31734;SDS011;18313;48.518;9.124;2023-02-20T09:04:56;7.07;;;2.00;;
31734;SDS011;18313;48.518;9.124;2023-02-20T09:07:24;7.63;;;2.28;;
31734;SDS011;18313;48.518;9.124;2023-02-20T09:09:51;6.75;;;1.67;;
31734;SDS011;18313;48.518;9.124;2023-02-20T09:12:18;7.80;;;2.83;;
31734;SDS011;18313;48.518;9.124;2023-02-20T09:14:45;7.78;;;2.60;;
31734;SDS011;18313;48.518;9.124;2023-02-20T09:17:13;6.45;;;1.98;;
31734;SDS011;18313;48.518;9.124;2023-02-20T09:19:40;6.53;;;2.10;;
31734;SDS011;18313;48.518;9.124;2023-02-20T09:22:07;6.47;;;1.95;;
31734;SDS011;18313;48.518;9.124;2023-02-20T09:24:34;6.40;;;1.80;;
31734;SDS011;18313;48.518;9.124;2023-02-20T09:27:02;7.18;;;1.75;;
31734;SDS011;18313;48.518;9.124;2023-02-20T09:29:31;5.50;;;1.80;;
31734;SDS011;18313;48.518;9.124;2023-02-20T09:31:59;5.25;;;1.73;;
31734;SDS011;18313;48.518;9.124;2023-02-20T09:34:27;5.40;;;1.80;;
31734;SDS011;18313;48.518;9.124;2023-02-20T09:36:54;6.60;;;2.00;;
31734;SDS011;18313;48.518;9.124;2023-02-20T09:39:21;7.55;;;1.85;;
31734;SDS011;18313;48.518;9.124;2023-02-20T09:41:53;9.13;;;2.00;;
31734;SDS011;18313;48.518;9.124;2023-02-20T09:49:56;6.15;;;1.52;;
31734;SDS011;18313;48.518;9.124;2023-02-20T09:52:33;5.30;;;1.80;;
31734;SDS011;18313;48.518;9.124;2023-02-20T09:55:04;6.53;;;1.70;;
31734;SDS011;18313;48.518;9.124;2023-02-20T09:57:33;7.13;;;1.60;;
31734;SDS011;18313;48.518;9.124;2023-02-20T10:00:13;4.38;;;1.40;;
31734;SDS011;18313;48.518;9.124;2023-02-20T10:02:52;6.90;;;2.15;;
31734;SDS011;18313;48.518;9.124;2023-02-20T10:05:27;4.80;;;1.67;;
31734;SDS011;18313;48.518;9.124;2023-02-20T10:07:56;6.82;;;1.77;;
31734;SDS011;18313;48.518;9.124;2023-02-20T10:10:25;3.80;;;1.48;;
31734;SDS011;18313;48.518;9.124;2023-02-20T10:13:12;5.55;;;1.55;;
31734;SDS011;18313;48.518;9.124;2023-02-20T10:21:43;4.93;;;1.80;;
31734;SDS011;18313;48.518;9.124;2023-02-20T10:29:49;5.35;;;1.67;;
31734;SDS011;18313;48.518;9.124;2023-02-20T10:32:23;7.68;;;1.48;;
31734;SDS011;18313;48.518;9.124;2023-02-20T10:34:57;3.38;;;1.40;;
31734;SDS011;18313;48.518;9.124;2023-02-20T10:37:34;3.58;;;1.33;;
31734;SDS011;18313;48.518;9.124;2023-02-20T10:42:56;6.50;;;1.63;;
31734;SDS011;18313;48.518;9.124;2023-02-20T10:45:35;3.83;;;1.75;;
31734;SDS011;18313;48.518;9.124;2023-02-20T10:48:12;3.00;;;1.30;;
31734;SDS011;18313;48.518;9.124;2023-02-20T10:53:32;6.45;;;1.67;;
31734;SDS011;18313;48.518;9.124;2023-02-20T10:56:12;4.88;;;1.25;;
31734;SDS011;18313;48.518;9.124;2023-02-20T11:01:33;4.28;;;1.60;;
31734;SDS011;18313;48.518;9.124;2023-02-20T11:04:06;5.75;;;1.80;;
31734;SDS011;18313;48.518;9.124;2023-02-20T11:07:01;4.50;;;1.40;;
31734;SDS011;18313;48.518;9.124;2023-02-20T11:09:40;8.00;;;1.40;;
31734;SDS011;18313;48.518;9.124;2023-02-20T11:12:09;3.83;;;1.20;;
31734;SDS011;18313;48.518;9.124;2023-02-20T11:14:58;7.18;;;1.58;;
31734;SDS011;18313;48.518;9.124;2023-02-20T11:17:31;3.75;;;1.33;;
31734;SDS011;18313;48.518;9.124;2023-02-20T11:20:00;5.18;;;1.40;;
31734;SDS011;18313;48.518;9.124;2023-02-20T11:22:37;4.95;;;1.40;;
31734;SDS011;18313;48.518;9.124;2023-02-20T11:27:44;4.43;;;1.30;;
31734;SDS011;18313;48.518;9.124;2023-02-20T11:30:27;8.43;;;1.50;;
31734;SDS011;18313;48.518;9.124;2023-02-20T11:35:44;7.63;;;1.50;;
31734;SDS011;18313;48.518;9.124;2023-02-20T11:38:17;5.22;;;1.48;;
31734;SDS011;18313;48.518;9.124;2023-02-20T11:46:05;3.78;;;1.20;;
31734;SDS011;18313;48.518;9.124;2023-02-20T11:51:34;2.80;;;0.98;;
31734;SDS011;18313;48.518;9.124;2023-02-20T11:56:56;2.45;;;0.93;;
31734;SDS011;18313;48.518;9.124;2023-02-20T11:59:38;3.17;;;1.00;;
31734;SDS011;18313;48.518;9.124;2023-02-20T12:07:35;3.40;;;1.05;;
31734;SDS011;18313;48.518;9.124;2023-02-20T12:12:56;3.03;;;0.98;;
31734;SDS011;18313;48.518;9.124;2023-02-20T12:15:26;3.08;;;1.55;;
31734;SDS011;18313;48.518;9.124;2023-02-20T12:20:53;4.78;;;0.95;;
31734;SDS011;18313;48.518;9.124;2023-02-20T12:23:38;6.78;;;1.40;;
31734;SDS011;18313;48.518;9.124;2023-02-20T12:34:53;3.65;;;1.20;;
31734;SDS011;18313;48.518;9.124;2023-02-20T12:40:26;2.00;;;0.82;;
31734;SDS011;18313;48.518;9.124;2023-02-20T12:43:14;2.75;;;1.00;;
31734;SDS011;18313;48.518;9.124;2023-02-20T12:45:51;3.13;;;0.73;;
31734;SDS011;18313;48.518;9.124;2023-02-20T12:48:30;2.70;;;1.00;;
31734;SDS011;18313;48.518;9.124;2023-02-20T12:51:25;2.38;;;0.90;;
31734;SDS011;18313;48.518;9.124;2023-02-20T12:56:52;3.08;;;0.90;;
31734;SDS011;18313;48.518;9.124;2023-02-20T12:59:31;4.45;;;0.90;;
31734;SDS011;18313;48.518;9.124;2023-02-20T13:02:23;5.95;;;1.00;;
31734;SDS011;18313;48.518;9.124;2023-02-20T13:05:08;3.72;;;1.10;;
31734;SDS011;18313;48.518;9.124;2023-02-20T13:07:54;6.40;;;1.08;;
31734;SDS011;18313;48.518;9.124;2023-02-20T13:10:29;4.88;;;1.10;;
31734;SDS011;18313;48.518;9.124;2023-02-20T13:12:59;3.05;;;1.15;;
31734;SDS011;18313;48.518;9.124;2023-02-20T13:20:31;2.15;;;0.80;;
31734;SDS011;18313;48.518;9.124;2023-02-20T13:23:24;4.30;;;1.00;;
31734;SDS011;18313;48.518;9.124;2023-02-20T13:25:56;3.95;;;0.95;;
31734;SDS011;18313;48.518;9.124;2023-02-20T13:33:48;3.55;;;1.30;;
31734;SDS011;18313;48.518;9.124;2023-02-20T13:39:55;3.10;;;1.08;;
31734;SDS011;18313;48.518;9.124;2023-02-20T13:46:57;2.85;;;0.88;;
31734;SDS011;18313;48.518;9.124;2023-02-20T13:57:43;5.00;;;0.77;;
31734;SDS011;18313;48.518;9.124;2023-02-20T14:00:20;2.90;;;0.90;;
31734;SDS011;18313;48.518;9.124;2023-02-20T14:03:09;4.93;;;1.00;;
31734;SDS011;18313;48.518;9.124;2023-02-20T14:05:38;4.70;;;0.80;;
31734;SDS011;18313;48.518;9.124;2023-02-20T14:08:05;4.60;;;1.00;;
31734;SDS011;18313;48.518;9.124;2023-02-20T14:10:41;2.65;;;0.88;;
31734;SDS011;18313;48.518;9.124;2023-02-20T14:13:14;2.70;;;0.73;;
31734;SDS011;18313;48.518;9.124;2023-02-20T14:15:56;4.20;;;0.98;;
31734;SDS011;18313;48.518;9.124;2023-02-20T14:18:26;3.40;;;1.00;;
31734;SDS011;18313;48.518;9.124;2023-02-20T14:21:17;3.40;;;1.38;;
31734;SDS011;18313;48.518;9.124;2023-02-20T14:23:46;1.65;;;0.80;;
31734;SDS011;18313;48.518;9.124;2023-02-20T14:28:50;2.88;;;0.82;;
31734;SDS011;18313;48.518;9.124;2023-02-20T14:31:30;2.42;;;0.90;;
31734;SDS011;18313;48.518;9.124;2023-02-20T14:34:23;3.30;;;1.00;;
31734;SDS011;18313;48.518;9.124;2023-02-20T14:37:10;1.67;;;0.70;;
31734;SDS011;18313;48.518;9.124;2023-02-20T14:42:15;5.68;;;1.00;;
31734;SDS011;18313;48.518;9.124;2023-02-20T14:44:48;1.48;;;0.70;;
31734;SDS011;18313;48.518;9.124;2023-02-20T14:47:48;3.50;;;0.80;;
31734;SDS011;18313;48.518;9.124;2023-02-20T14:50:21;3.28;;;1.00;;
31734;SDS011;18313;48.518;9.124;2023-02-20T14:53:01;12.07;;;1.10;;
31734;SDS011;18313;48.518;9.124;2023-02-20T14:55:41;3.80;;;0.88;;
31734;SDS011;18313;48.518;9.124;2023-02-20T14:58:16;3.13;;;0.90;;
31734;SDS011;18313;48.518;9.124;2023-02-20T15:00:45;2.35;;;0.85;;
31734;SDS011;18313;48.518;9.124;2023-02-20T15:06:00;4.38;;;0.90;;
31734;SDS011;18313;48.518;9.124;2023-02-20T15:08:31;2.28;;;0.90;;
31734;SDS011;18313;48.518;9.124;2023-02-20T15:11:11;3.17;;;0.90;;
31734;SDS011;18313;48.518;9.124;2023-02-20T15:13:41;3.80;;;0.98;;
31734;SDS011;18313;48.518;9.124;2023-02-20T15:18:41;3.05;;;1.08;;
31734;SDS011;18313;48.518;9.124;2023-02-20T15:21:10;6.13;;;1.70;;
31734;SDS011;18313;48.518;9.124;2023-02-20T15:23:39;1.80;;;0.80;;
31734;SDS011;18313;48.518;9.124;2023-02-20T15:26:28;3.03;;;0.77;;
31734;SDS011;18313;48.518;9.124;2023-02-20T15:31:46;2.10;;;0.60;;
31734;SDS011;18313;48.518;9.124;2023-02-20T15:34:24;2.80;;;0.65;;
31734;SDS011;18313;48.518;9.124;2023-02-20T15:36:55;1.88;;;0.73;;
31734;SDS011;18313;48.518;9.124;2023-02-20T15:39:24;2.78;;;0.70;;
31734;SDS011;18313;48.518;9.124;2023-02-20T15:41:51;3.53;;;0.70;;
31734;SDS011;18313;48.518;9.124;2023-02-20T15:44:19;3.28;;;0.90;;
31734;SDS011;18313;48.518;9.124;2023-02-20T15:46:46;2.38;;;0.88;;
31734;SDS011;18313;48.518;9.124;2023-02-20T15:49:13;4.60;;;1.00;;
31734;SDS011;18313;48.518;9.124;2023-02-20T15:51:45;2.60;;;0.60;;
31734;SDS011;18313;48.518;9.124;2023-02-20T15:54:15;3.33;;;0.70;;
31734;SDS011;18313;48.518;9.124;2023-02-20T15:56:43;0.98;;;0.57;;
31734;SDS011;18313;48.518;9.124;2023-02-20T15:59:12;2.40;;;0.70;;
31734;SDS011;18313;48.518;9.124;2023-02-20T16:01:39;3.28;;;0.50;;
31734;SDS011;18313;48.518;9.124;2023-02-20T16:04:07;1.40;;;0.50;;
31734;SDS011;18313;48.518;9.124;2023-02-20T16:06:36;3.10;;;0.60;;
31734;SDS011;18313;48.518;9.124;2023-02-20T16:09:03;2.83;;;0.95;;
31734;SDS011;18313;48.518;9.124;2023-02-20T16:11:38;3.55;;;0.60;;
31734;SDS011;18313;48.518;9.124;2023-02-20T16:14:13;3.85;;;0.60;;
31734;SDS011;18313;48.518;9.124;2023-02-20T16:16:43;2.75;;;0.60;;
31734;SDS011;18313;48.518;9.124;2023-02-20T16:19:16;3.70;;;0.70;;
31734;SDS011;18313;48.518;9.124;2023-02-20T16:21:48;2.20;;;0.77;;
31734;SDS011;18313;48.518;9.124;2023-02-20T16:24:24;1.35;;;0.60;;
31734;SDS011;18313;48.518;9.124;2023-02-20T16:26:51;2.28;;;0.70;;
31734;SDS011;18313;48.518;9.124;2023-02-20T16:29:20;2.17;;;1.10;;
31734;SDS011;18313;48.518;9.124;2023-02-20T16:34:20;1.20;;;0.63;;
31734;SDS011;18313;48.518;9.124;2023-02-20T16:36:48;4.70;;;0.70;;
31734;SDS011;18313;48.518;9.124;2023-02-20T16:39:16;1.60;;;0.70;;
31734;SDS011;18313;48.518;9.124;2023-02-20T16:41:52;2.60;;;0.90;;
31734;SDS011;18313;48.518;9.124;2023-02-20T16:44:28;3.85;;;0.88;;
31734;SDS011;18313;48.518;9.124;2023-02-20T16:47:08;2.50;;;0.77;;
31734;SDS011;18313;48.518;9.124;2023-02-20T16:49:37;6.45;;;0.90;;
31734;SDS011;18313;48.518;9.124;2023-02-20T16:52:11;3.40;;;0.80;;
31734;SDS011;18313;48.518;9.124;2023-02-20T16:54:46;4.75;;;0.80;;
31734;SDS011;18313;48.518;9.124;2023-02-20T16:57:15;2.10;;;0.80;;
31734;SDS011;18313;48.518;9.124;2023-02-20T16:59:43;4.13;;;0.88;;
31734;SDS011;18313;48.518;9.124;2023-02-20T17:02:17;2.33;;;0.70;;
31734;SDS011;18313;48.518;9.124;2023-02-20T17:04:46;3.88;;;1.00;;
31734;SDS011;18313;48.518;9.124;2023-02-20T17:07:14;2.65;;;0.90;;
31734;SDS011;18313;48.518;9.124;2023-02-20T17:09:42;4.05;;;0.90;;
31734;SDS011;18313;48.518;9.124;2023-02-20T17:12:12;4.20;;;1.00;;
31734;SDS011;18313;48.518;9.124;2023-02-20T17:14:42;1.52;;;0.80;;